Date,TemperatureHighF,TemperatureAvgF,TemperatureLowF,DewpointHighF,DewpointAvgF,DewpointLowF,HumidityHigh,HumidityAvg,HumidityLow,PressureMaxIn,PressureMinIn,WindSpeedMaxMPH,WindSpeedAvgMPH,GustSpeedMaxMPH,PrecipitationSumIn
2013-1-1,70.0,57.0,46.0,57.0,51.5,45.0,100,82,60,30.21,29.96,13,7,16,0.00
2013-1-2,64.0,57.3,50.0,61.0,55.1,50.0,100,93,77,30.17,29.90,13,8,20,0.00
2013-1-3,50.0,46.0,39.0,50.0,46.0,39.0,100,100,100,30.28,30.11,9,5,0,0.00
2013-1-4,54.0,41.0,30.0,43.0,35.7,30.0,100,85,43,30.36,30.26,8,2,0,0.00
2013-1-5,52.0,39.1,28.0,39.0,32.6,27.0,100,81,40,30.43,30.31,7,2,0,0.00
2013-1-6,54.0,47.6,39.0,48.0,45.6,39.0,100,93,76,30.31,30.12,8,2,0,0.00
2013-1-7,55.0,46.4,37.0,46.0,39.0,30.0,100,79,40,30.40,30.17,15,7,25,0.00
2013-1-8,66.0,51.7,41.0,54.0,46.3,37.0,100,82,63,30.42,30.34,9,5,0,0.00
2013-1-9,70.0,58.8,46.0,61.0,56.1,46.0,100,91,64,30.41,30.34,8,3,0,0.00
2013-1-10,68.0,58.5,52.0,63.0,53.8,48.0,100,85,59,30.47,30.39,15,7,22,0.00
2013-1-11,73.0,59.9,54.0,70.0,59.1,52.0,100,97,78,30.39,30.20,12,3,18,0.00
2013-1-12,81.0,66.0,55.0,70.0,62.1,55.0,100,89,50,30.22,30.14,8,4,0,0.00
2013-1-13,77.0,62.7,54.0,68.0,59.4,54.0,100,90,57,30.20,30.12,14,4,16,0.00
2013-1-14,79.0,65.9,54.0,68.0,61.9,54.0,100,88,57,30.21,30.13,13,6,21,0.00
2013-1-15,77.0,66.7,54.0,68.0,62.5,54.0,100,88,61,30.19,30.06,12,5,0,0.00
2013-1-16,79.0,68.8,61.0,66.0,63.8,61.0,100,86,57,30.08,29.98,18,9,24,0.00
2013-1-17,77.0,64.3,46.0,64.0,59.6,41.0,100,86,61,30.03,29.77,20,10,32,0.00
2013-1-18,55.0,44.7,36.0,41.0,33.3,27.0,100,68,32,30.51,30.03,22,10,31,0.00
2013-1-19,59.0,45.0,34.0,46.0,38.0,30.0,100,78,50,30.50,30.25,9,5,0,0.00
2013-1-20,68.0,50.4,37.0,48.0,40.8,32.0,100,76,26,30.25,30.04,16,5,22,0.00
2013-1-23,46.0,37.6,28.0,30.0,24.8,16.0,100,62,39,30.39,30.27,10,5,0,0.00
2013-1-24,61.0,54.9,48.0,45.0,43.9,43.0,81,66,51,30.16,30.10,15,13,30,0.00
2013-1-27,45.0,39.3,36.0,37.0,35.7,34.0,93,87,75,30.55,30.39,10,7,17,0.00
2013-1-28,59.0,53.2,43.0,54.0,48.7,37.0,87,84,81,30.46,30.33,7,5,0,0.00
2013-1-29,77.0,68.4,54.0,63.0,59.6,54.0,100,76,61,30.20,30.15,12,9,16,0.00
2013-2-3,45.0,45.0,45.0,36.0,36.0,36.0,70,70,70,29.97,29.97,3,3,0,0.00
2013-2-6,46.0,46.0,46.0,46.0,46.0,46.0,100,100,100,30.13,30.13,0,0,0,0.00
2013-2-8,54.0,52.5,52.0,52.0,49.8,48.0,100,91,87,30.06,30.01,7,6,0,0.00
2013-2-9,61.0,46.5,34.0,50.0,33.7,25.0,100,66,26,30.37,30.06,16,6,21,0.00
2013-2-10,61.0,46.4,30.0,52.0,42.1,30.0,100,87,55,30.44,30.23,14,4,18,0.00
2013-2-11,66.0,61.1,52.0,66.0,61.1,52.0,100,100,100,30.26,30.05,16,8,24,0.00
2013-2-12,63.0,56.6,48.0,61.0,54.2,45.0,100,92,55,30.15,29.94,10,5,0,0.00
2013-2-13,70.0,56.5,46.0,66.0,54.3,46.0,100,93,72,29.94,29.70,18,8,30,0.00
2013-2-14,54.0,48.4,39.0,52.0,41.7,36.0,100,80,53,30.10,29.85,10,4,16,0.00
2013-2-15,57.0,44.6,30.0,45.0,38.9,30.0,100,83,44,30.12,29.99,12,3,0,0.00
2013-2-16,54.0,40.3,34.0,46.0,38.7,34.0,100,95,61,30.02,29.82,23,7,37,0.00
2013-2-17,45.0,34.5,25.0,34.0,23.0,14.0,100,68,28,30.32,30.01,20,9,31,0.00
2013-2-18,54.0,37.9,21.0,36.0,27.3,21.0,100,70,34,30.45,30.30,13,4,16,0.00
2013-2-19,66.0,49.1,32.0,57.0,46.7,32.0,100,93,52,30.30,29.98,20,7,27,0.00
2013-2-20,57.0,46.7,36.0,48.0,35.8,25.0,100,70,34,30.17,30.04,12,5,0,0.00
2013-2-21,55.0,43.8,32.0,43.0,36.2,30.0,100,78,37,30.22,30.11,12,4,0,0.00
2013-2-22,52.0,49.1,43.0,52.0,47.2,41.0,100,93,76,30.25,30.07,21,8,27,0.00
2013-2-23,54.0,47.0,43.0,54.0,47.0,43.0,100,100,100,30.08,29.78,12,4,0,0.00
2013-2-24,66.0,53.0,43.0,54.0,48.2,43.0,100,87,42,30.02,29.77,12,6,20,0.00
2013-2-25,46.0,43.5,41.0,45.0,41.7,37.0,100,94,75,30.09,29.99,18,6,24,0.00
2013-2-26,72.0,60.6,45.0,70.0,59.1,45.0,100,95,82,30.03,29.61,30,13,36,0.00
2013-2-27,61.0,52.5,46.0,57.0,44.2,37.0,100,74,51,29.90,29.70,18,9,24,0.00
2013-2-28,59.0,49.7,37.0,43.0,38.2,34.0,93,67,38,29.90,29.78,22,10,29,0.00
2013-3-1,54.0,45.2,37.0,39.0,34.7,30.0,100,68,43,29.95,29.86,14,6,20,0.00
2013-3-2,52.0,41.4,30.0,39.0,34.8,30.0,100,79,43,29.94,29.84,15,6,21,0.00
2013-3-3,50.0,39.7,30.0,37.0,29.2,25.0,100,69,39,30.01,29.90,16,8,23,0.00
2013-3-4,54.0,40.3,28.0,36.0,25.7,19.0,93,61,25,30.18,30.01,15,7,22,0.00
2013-3-5,66.0,52.7,36.0,57.0,43.4,34.0,100,74,36,30.14,29.70,22,9,32,0.00
2013-3-6,59.0,48.7,41.0,57.0,32.1,25.0,100,54,34,30.07,29.66,25,16,36,0.00
2013-3-7,59.0,44.4,30.0,37.0,32.2,28.0,93,65,38,30.23,30.07,16,6,22,0.00
2013-3-8,59.0,45.4,34.0,36.0,29.9,27.0,93,58,30,30.29,30.17,16,7,25,0.00
2013-3-9,63.0,47.5,36.0,43.0,35.1,28.0,100,65,36,30.33,30.25,14,6,18,0.00
2013-3-10,64.0,48.1,34.0,46.0,38.4,28.0,100,75,29,30.32,30.24,12,4,16,0.00
2013-3-11,72.0,58.4,39.0,61.0,52.5,39.0,100,83,53,30.25,29.95,17,6,28,0.00
2013-3-12,72.0,64.2,54.0,64.0,60.9,48.0,100,88,71,29.95,29.81,23,10,29,0.00
2013-3-13,64.0,54.6,43.0,48.0,36.3,28.0,93,55,27,30.13,29.94,23,9,28,0.00
2013-3-14,55.0,43.9,34.0,34.0,25.4,19.0,86,50,30,30.31,30.10,15,8,22,0.00
2013-3-15,64.0,47.3,28.0,46.0,34.7,28.0,100,66,36,30.24,30.05,13,6,18,0.00
2013-3-16,81.0,63.8,55.0,52.0,47.9,45.0,76,58,28,30.05,29.85,21,13,27,0.00
2013-3-17,79.0,64.3,54.0,57.0,51.1,46.0,87,63,41,30.06,29.94,16,10,22,0.00
2013-3-18,61.0,56.6,54.0,61.0,54.5,48.0,100,93,63,30.12,29.87,12,6,0,0.00
2013-3-19,73.0,60.5,46.0,64.0,51.0,41.0,100,76,33,30.01,29.83,15,8,30,0.00
2013-3-20,61.0,51.5,36.0,45.0,31.8,21.0,100,51,24,30.13,29.85,15,6,18,0.00
2013-3-21,55.0,45.2,34.0,36.0,28.6,23.0,100,56,30,29.95,29.78,15,8,24,0.00
2013-3-22,52.0,42.4,34.0,39.0,26.5,19.0,81,54,34,30.11,29.95,14,6,18,0.00
2013-3-23,50.0,44.4,37.0,48.0,42.2,36.0,100,93,57,30.07,29.92,12,4,16,0.00
2013-3-24,63.0,52.5,45.0,63.0,52.2,45.0,100,99,87,29.93,29.46,28,11,41,0.00
2013-3-25,55.0,48.1,43.0,46.0,35.5,27.0,100,65,37,29.94,29.59,30,15,41,0.00
2013-3-26,54.0,42.9,34.0,30.0,27.7,27.0,74,55,37,30.17,29.94,17,9,27,0.00
2013-3-27,57.0,44.0,32.0,36.0,30.4,27.0,93,64,33,30.27,30.17,15,6,23,0.00
2013-3-28,59.0,44.7,32.0,34.0,29.0,27.0,93,58,30,30.31,30.19,13,6,25,0.00
2013-3-29,61.0,46.1,30.0,41.0,34.4,28.0,100,68,38,30.37,30.24,13,5,17,0.00
2013-3-30,70.0,54.7,46.0,52.0,47.1,41.0,100,78,43,30.27,30.10,13,4,16,0.00
2013-3-31,73.0,63.7,48.0,61.0,54.2,-99.9,100,76,56,30.12,29.91,17,11,29,0.00
2013-4-1,75.0,64.5,54.0,63.0,58.6,54.0,100,84,50,29.95,29.86,15,7,23,0.00
2013-4-2,61.0,55.3,48.0,54.0,45.1,39.0,100,70,44,30.16,29.94,14,7,18,0.00
2013-4-3,63.0,53.8,45.0,54.0,45.2,37.0,100,76,39,30.26,30.09,14,7,18,0.00
2013-4-4,59.0,54.5,52.0,59.0,50.8,41.0,100,88,62,30.27,29.84,21,11,30,0.00
2013-4-5,57.0,49.0,43.0,54.0,47.0,43.0,100,94,71,30.04,29.86,10,6,17,0.00
2013-8-8,84.0,78.8,73.0,79.0,75.8,73.0,100,90,83,30.06,30.04,7,4,0,0.00
2013-8-9,90.0,79.1,75.0,81.0,77.5,75.0,100,96,62,30.12,30.05,9,4,0,0.00
2013-8-10,91.0,81.9,73.0,81.0,76.5,73.0,100,85,59,30.15,30.08,12,5,17,0.01
2013-8-12,81.0,78.6,77.0,79.0,78.4,77.0,100,99,94,30.11,30.07,7,5,0,0.00
2013-8-13,81.0,40.5,81.0,79.0,-10.5,-99.9,94,75,56,29.97,29.92,9,8,21,0.00
2013-8-14,81.0,60.8,81.0,81.0,34.8,-99.9,100,72,88,29.95,29.88,7,6,0,0.00
2013-8-15,64.0,32.0,64.0,64.0,-18.0,-99.9,100,67,100,30.09,30.02,8,7,0,0.01
2013-8-16,70.0,35.0,70.0,70.0,-15.0,-99.9,100,97,94,30.08,30.06,12,9,16,0.00
2013-8-18,73.0,73.0,73.0,73.0,73.0,73.0,100,100,100,30.19,30.19,0,0,0,0.00
2013-8-19,-200.0,0.0,200.0,-99.9,-99.9,-99.9,100,15,94,30.11,30.09,9,2,0,1.67
2013-8-20,-200.0,0.0,200.0,-99.9,-99.9,-99.9,0,0,100,30.15,30.15,0,0,0,0.00
2013-8-24,82.0,82.0,82.0,72.0,72.0,72.0,69,69,69,30.18,30.18,7,7,0,0.00
2013-8-31,88.0,42.8,75.0,81.0,-8.5,-99.9,100,43,66,29.99,29.92,9,4,0,0.00
2013-9-1,90.0,67.6,73.0,81.0,45.4,-99.9,100,70,59,29.97,29.87,14,6,18,0.00
2013-9-2,91.0,82.5,73.0,81.0,76.8,73.0,100,84,59,29.95,29.85,14,8,23,0.00
2013-9-3,91.0,79.4,72.0,79.0,73.7,72.0,100,85,55,29.97,29.85,13,6,20,0.00
2013-9-4,75.0,71.9,70.0,73.0,71.8,70.0,100,100,94,30.02,29.96,3,0,0,0.00
2013-9-5,90.0,41.6,75.0,79.0,-11.9,-99.9,100,40,59,30.10,30.03,8,2,0,0.00
2013-9-6,88.0,56.0,68.0,73.0,21.6,-99.9,100,56,45,30.11,30.04,13,3,0,0.00
2013-9-7,84.0,60.6,66.0,73.0,36.4,-99.9,100,67,61,30.10,30.00,9,5,0,0.00
2013-9-8,90.0,71.9,64.0,72.0,60.9,-99.9,100,78,52,30.01,29.92,10,3,10,0.00
2013-9-9,88.0,77.2,66.0,75.0,71.3,66.0,100,84,58,30.15,29.99,13,4,16,0.00
2013-9-10,88.0,68.7,70.0,75.0,50.6,-99.9,100,72,48,30.23,30.14,13,4,17,0.00
2013-9-11,88.0,44.6,70.0,77.0,-3.3,-99.9,100,45,51,30.21,30.11,12,4,17,0.00
2013-9-12,90.0,47.3,70.0,75.0,3.2,-99.9,100,48,46,30.11,29.90,10,2,0,0.00
2013-9-13,90.0,80.2,73.0,75.0,73.1,70.0,100,82,52,29.90,29.76,10,5,0,0.00
2013-9-14,81.0,75.3,68.0,75.0,67.7,63.0,100,77,65,30.08,29.81,12,8,16,0.00
2013-9-15,82.0,58.9,66.0,75.0,35.7,-99.9,100,71,74,30.15,30.08,14,6,16,0.00
2013-9-16,88.0,39.2,72.0,75.0,-13.5,-99.9,100,42,58,30.15,30.04,8,1,0,0.00
2013-9-17,81.0,73.8,68.0,73.0,65.0,57.0,100,76,44,30.24,30.10,15,10,22,0.00